sensor_id;sensor_type;location;lat;lon;timestamp;pressure;altitude;pressure_sealevel;temperature;humidity
44934;BME280;30667;43.614;1.442;2023-05-06T00:02:01;99988.03;;;18.09;100.00
44934;BME280;30667;43.614;1.442;2023-05-06T00:04:26;99982.53;;;18.09;100.00
44934;BME280;30667;43.614;1.442;2023-05-06T00:06:52;99983.53;;;18.05;100.00
44934;BME280;30667;43.614;1.442;2023-05-06T00:09:18;99978.06;;;17.96;100.00
44934;BME280;30667;43.614;1.442;2023-05-06T00:11:45;99975.78;;;17.98;100.00
44934;BME280;30667;43.614;1.442;2023-05-06T00:14:11;99966.66;;;17.94;100.00
44934;BME280;30667;43.614;1.442;2023-05-06T00:16:37;99968.59;;;17.93;100.00
44934;BME280;30667;43.614;1.442;2023-05-06T00:19:02;99961.19;;;17.94;100.00
44934;BME280;30667;43.614;1.442;2023-05-06T00:21:28;99956.97;;;17.96;100.00
44934;BME280;30667;43.614;1.442;2023-05-06T00:23:53;99956.63;;;18.07;100.00
44934;BME280;30667;43.614;1.442;2023-05-06T00:26:19;99955.31;;;18.04;100.00
44934;BME280;30667;43.614;1.442;2023-05-06T00:28:44;99952.50;;;17.92;100.00
44934;BME280;30667;43.614;1.442;2023-05-06T00:31:09;99945.06;;;17.84;100.00
44934;BME280;30667;43.614;1.442;2023-05-06T00:33:35;99945.13;;;17.75;100.00
44934;BME280;30667;43.614;1.442;2023-05-06T00:36:00;99942.72;;;17.73;100.00
44934;BME280;30667;43.614;1.442;2023-05-06T00:38:26;99936.13;;;17.74;100.00
44934;BME280;30667;43.614;1.442;2023-05-06T00:40:51;99939.13;;;17.82;100.00
44934;BME280;30667;43.614;1.442;2023-05-06T00:43:16;99929.69;;;17.70;100.00
44934;BME280;30667;43.614;1.442;2023-05-06T00:45:42;99928.13;;;17.99;100.00
44934;BME280;30667;43.614;1.442;2023-05-06T00:48:08;99919.50;;;17.79;100.00
44934;BME280;30667;43.614;1.442;2023-05-06T00:50:33;99927.25;;;17.77;100.00
44934;BME280;30667;43.614;1.442;2023-05-06T00:53:02;99916.75;;;17.88;100.00
44934;BME280;30667;43.614;1.442;2023-05-06T00:55:29;99920.50;;;17.75;100.00
44934;BME280;30667;43.614;1.442;2023-05-06T00:57:55;99913.44;;;17.65;100.00
44934;BME280;30667;43.614;1.442;2023-05-06T01:00:21;99910.41;;;17.58;100.00
44934;BME280;30667;43.614;1.442;2023-05-06T01:02:47;99901.88;;;17.59;100.00
44934;BME280;30667;43.614;1.442;2023-05-06T01:05:14;99892.22;;;17.53;100.00
44934;BME280;30667;43.614;1.442;2023-05-06T01:07:56;99892.88;;;17.50;100.00
44934;BME280;30667;43.614;1.442;2023-05-06T01:10:35;99890.00;;;17.47;100.00
44934;BME280;30667;43.614;1.442;2023-05-06T01:13:16;99885.13;;;17.61;100.00
44934;BME280;30667;43.614;1.442;2023-05-06T01:15:45;99882.41;;;17.61;100.00
44934;BME280;30667;43.614;1.442;2023-05-06T01:18:16;99877.84;;;17.74;100.00
44934;BME280;30667;43.614;1.442;2023-05-06T01:20:47;99872.75;;;17.64;100.00
44934;BME280;30667;43.614;1.442;2023-05-06T01:23:14;99877.75;;;17.53;100.00
44934;BME280;30667;43.614;1.442;2023-05-06T01:25:40;99878.88;;;17.52;100.00
44934;BME280;30667;43.614;1.442;2023-05-06T01:28:06;99871.53;;;17.43;100.00
44934;BME280;30667;43.614;1.442;2023-05-06T01:30:56;99863.81;;;17.37;100.00
44934;BME280;30667;43.614;1.442;2023-05-06T01:33:35;99868.56;;;17.96;100.00
44934;BME280;30667;43.614;1.442;2023-05-06T01:36:23;99867.41;;;17.67;100.00
44934;BME280;30667;43.614;1.442;2023-05-06T01:39:10;99863.94;;;17.49;100.00
44934;BME280;30667;43.614;1.442;2023-05-06T01:41:38;99864.19;;;17.65;100.00
44934;BME280;30667;43.614;1.442;2023-05-06T01:44:06;99872.16;;;18.18;100.00
44934;BME280;30667;43.614;1.442;2023-05-06T01:46:33;99861.34;;;18.21;100.00
44934;BME280;30667;43.614;1.442;2023-05-06T01:49:03;99858.28;;;17.93;100.00
44934;BME280;30667;43.614;1.442;2023-05-06T01:51:31;99864.19;;;17.65;100.00
44934;BME280;30667;43.614;1.442;2023-05-06T01:53:57;99860.56;;;17.43;100.00
44934;BME280;30667;43.614;1.442;2023-05-06T01:56:22;99864.97;;;17.27;100.00
44934;BME280;30667;43.614;1.442;2023-05-06T01:58:48;99862.09;;;17.23;100.00
44934;BME280;30667;43.614;1.442;2023-05-06T02:01:13;99852.97;;;17.11;100.00
44934;BME280;30667;43.614;1.442;2023-05-06T02:03:38;99844.13;;;17.14;100.00
44934;BME280;30667;43.614;1.442;2023-05-06T02:06:04;99841.88;;;17.07;100.00
44934;BME280;30667;43.614;1.442;2023-05-06T02:08:29;99832.69;;;17.12;100.00
44934;BME280;30667;43.614;1.442;2023-05-06T02:10:55;99830.41;;;17.31;100.00
44934;BME280;30667;43.614;1.442;2023-05-06T02:13:20;99819.81;;;17.21;100.00
44934;BME280;30667;43.614;1.442;2023-05-06T02:15:45;99826.63;;;17.06;100.00
44934;BME280;30667;43.614;1.442;2023-05-06T02:18:11;99820.69;;;16.95;100.00
44934;BME280;30667;43.614;1.442;2023-05-06T02:20:36;99814.44;;;16.95;100.00
44934;BME280;30667;43.614;1.442;2023-05-06T02:23:02;99821.16;;;16.97;100.00
44934;BME280;30667;43.614;1.442;2023-05-06T02:25:28;99813.94;;;16.93;100.00
44934;BME280;30667;43.614;1.442;2023-05-06T02:27:53;99820.53;;;16.92;100.00
44934;BME280;30667;43.614;1.442;2023-05-06T02:30:19;99820.38;;;16.88;100.00
44934;BME280;30667;43.614;1.442;2023-05-06T02:32:44;99826.63;;;16.80;100.00
44934;BME280;30667;43.614;1.442;2023-05-06T02:35:09;99832.59;;;16.82;100.00
44934;BME280;30667;43.614;1.442;2023-05-06T02:37:35;99824.53;;;16.77;100.00
44934;BME280;30667;43.614;1.442;2023-05-06T02:40:00;99814.75;;;16.76;100.00
44934;BME280;30667;43.614;1.442;2023-05-06T02:42:26;99819.06;;;16.77;100.00
44934;BME280;30667;43.614;1.442;2023-05-06T02:44:51;99816.19;;;16.73;100.00
44934;BME280;30667;43.614;1.442;2023-05-06T02:47:16;99813.78;;;16.71;100.00
44934;BME280;30667;43.614;1.442;2023-05-06T02:49:42;99814.59;;;16.63;100.00
44934;BME280;30667;43.614;1.442;2023-05-06T02:52:07;99816.38;;;16.59;100.00
44934;BME280;30667;43.614;1.442;2023-05-06T02:54:33;99811.38;;;16.79;100.00
44934;BME280;30667;43.614;1.442;2023-05-06T02:56:58;99814.09;;;16.70;100.00
44934;BME280;30667;43.614;1.442;2023-05-06T02:59:23;99816.69;;;16.58;100.00
44934;BME280;30667;43.614;1.442;2023-05-06T03:01:49;99814.94;;;16.62;100.00
44934;BME280;30667;43.614;1.442;2023-05-06T03:04:14;99815.25;;;16.60;100.00
44934;BME280;30667;43.614;1.442;2023-05-06T03:06:39;99812.84;;;16.67;100.00
44934;BME280;30667;43.614;1.442;2023-05-06T03:09:05;99814.78;;;16.58;100.00
44934;BME280;30667;43.614;1.442;2023-05-06T03:11:31;99806.06;;;16.74;100.00
44934;BME280;30667;43.614;1.442;2023-05-06T03:13:56;99808.50;;;16.58;100.00
44934;BME280;30667;43.614;1.442;2023-05-06T03:16:22;99804.16;;;16.48;100.00
44934;BME280;30667;43.614;1.442;2023-05-06T03:18:48;99803.38;;;16.47;100.00
44934;BME280;30667;43.614;1.442;2023-05-06T03:21:13;99806.75;;;16.44;100.00
44934;BME280;30667;43.614;1.442;2023-05-06T03:23:38;99803.53;;;16.42;100.00
44934;BME280;30667;43.614;1.442;2023-05-06T03:26:04;99802.41;;;16.43;100.00
44934;BME280;30667;43.614;1.442;2023-05-06T03:28:30;99796.31;;;16.55;100.00
44934;BME280;30667;43.614;1.442;2023-05-06T03:30:55;99798.41;;;16.41;100.00
44934;BME280;30667;43.614;1.442;2023-05-06T03:33:20;99801.63;;;16.34;100.00
44934;BME280;30667;43.614;1.442;2023-05-06T03:35:46;99802.72;;;16.33;100.00
44934;BME280;30667;43.614;1.442;2023-05-06T03:38:11;99793.09;;;16.27;100.00
44934;BME280;30667;43.614;1.442;2023-05-06T03:40:37;99796.47;;;16.24;100.00
44934;BME280;30667;43.614;1.442;2023-05-06T03:43:02;99794.88;;;16.31;100.00
44934;BME280;30667;43.614;1.442;2023-05-06T03:45:28;99789.88;;;16.42;100.00
44934;BME280;30667;43.614;1.442;2023-05-06T03:47:53;99786.66;;;16.49;100.00
44934;BME280;30667;43.614;1.442;2023-05-06T03:50:18;99780.88;;;16.33;100.00
44934;BME280;30667;43.614;1.442;2023-05-06T03:52:44;99785.53;;;16.24;100.00
44934;BME280;30667;43.614;1.442;2023-05-06T03:55:10;99783.78;;;16.28;100.00
44934;BME280;30667;43.614;1.442;2023-05-06T03:57:35;99784.44;;;16.25;100.00
44934;BME280;30667;43.614;1.442;2023-05-06T04:00:01;99785.88;;;16.22;100.00
44934;BME280;30667;43.614;1.442;2023-05-06T04:02:26;99788.28;;;16.24;100.00
44934;BME280;30667;43.614;1.442;2023-05-06T04:04:53;99784.28;;;16.21;100.00
44934;BME280;30667;43.614;1.442;2023-05-06T04:07:18;99786.81;;;16.17;100.00
44934;BME280;30667;43.614;1.442;2023-05-06T04:09:44;99798.53;;;16.09;100.00
44934;BME280;30667;43.614;1.442;2023-05-06T04:12:09;99791.19;;;16.10;100.00
44934;BME280;30667;43.614;1.442;2023-05-06T04:14:34;99797.91;;;16.12;100.00
44934;BME280;30667;43.614;1.442;2023-05-06T04:17:00;99793.72;;;16.06;100.00
44934;BME280;30667;43.614;1.442;2023-05-06T04:19:25;99795.81;;;16.01;100.00
44934;BME280;30667;43.614;1.442;2023-05-06T04:21:51;99797.25;;;15.98;100.00
44934;BME280;30667;43.614;1.442;2023-05-06T04:24:16;99801.41;;;15.95;100.00
44934;BME280;30667;43.614;1.442;2023-05-06T04:26:42;99793.41;;;15.99;100.00
44934;BME280;30667;43.614;1.442;2023-05-06T04:29:07;99798.22;;;16.02;100.00
44934;BME280;30667;43.614;1.442;2023-05-06T04:31:33;99796.28;;;16.11;100.00
44934;BME280;30667;43.614;1.442;2023-05-06T04:33:59;99800.97;;;16.28;100.00
44934;BME280;30667;43.614;1.442;2023-05-06T04:36:25;99800.66;;;16.39;100.00
44934;BME280;30667;43.614;1.442;2023-05-06T04:38:50;99805.00;;;16.31;100.00
44934;BME280;30667;43.614;1.442;2023-05-06T04:41:17;99806.25;;;16.33;100.00
44934;BME280;30667;43.614;1.442;2023-05-06T04:43:43;99803.34;;;15.95;100.00
44934;BME280;30667;43.614;1.442;2023-05-06T04:46:09;99800.66;;;16.04;100.00
44934;BME280;30667;43.614;1.442;2023-05-06T04:48:35;99803.50;;;15.98;100.00
44934;BME280;30667;43.614;1.442;2023-05-06T04:51:01;99808.97;;;15.90;100.00
44934;BME280;30667;43.614;1.442;2023-05-06T04:53:28;99803.47;;;15.81;100.00
44934;BME280;30667;43.614;1.442;2023-05-06T04:55:54;99807.50;;;15.84;100.00
44934;BME280;30667;43.614;1.442;2023-05-06T04:58:19;99808.16;;;15.89;100.00
44934;BME280;30667;43.614;1.442;2023-05-06T05:00:45;99804.97;;;15.96;100.00
44934;BME280;30667;43.614;1.442;2023-05-06T05:03:10;99812.78;;;15.89;100.00
44934;BME280;30667;43.614;1.442;2023-05-06T05:05:36;99810.75;;;15.94;100.00
44934;BME280;30667;43.614;1.442;2023-05-06T05:08:01;99807.84;;;16.00;100.00
44934;BME280;30667;43.614;1.442;2023-05-06T05:10:26;99813.63;;;15.89;100.00
44934;BME280;30667;43.614;1.442;2023-05-06T05:12:52;99805.09;;;15.82;100.00
44934;BME280;30667;43.614;1.442;2023-05-06T05:15:17;99809.28;;;15.97;100.00
44934;BME280;30667;43.614;1.442;2023-05-06T05:17:43;99805.75;;;15.96;100.00
44934;BME280;30667;43.614;1.442;2023-05-06T05:20:09;99810.25;;;15.92;100.00
44934;BME280;30667;43.614;1.442;2023-05-06T05:22:34;99814.41;;;15.98;100.00
44934;BME280;30667;43.614;1.442;2023-05-06T05:25:00;99817.63;;;15.92;100.00
44934;BME280;30667;43.614;1.442;2023-05-06T05:27:26;99814.09;;;15.91;100.00
44934;BME280;30667;43.614;1.442;2023-05-06T05:29:51;99817.78;;;15.87;100.00
44934;BME280;30667;43.614;1.442;2023-05-06T05:32:16;99817.63;;;15.83;100.00
44934;BME280;30667;43.614;1.442;2023-05-06T05:34:42;99827.75;;;16.00;100.00
44934;BME280;30667;43.614;1.442;2023-05-06T05:37:07;99813.94;;;15.96;100.00
44934;BME280;30667;43.614;1.442;2023-05-06T05:39:33;99814.25;;;15.95;100.00
44934;BME280;30667;43.614;1.442;2023-05-06T05:41:58;99819.56;;;15.91;100.00
44934;BME280;30667;43.614;1.442;2023-05-06T05:44:23;99820.53;;;16.04;100.00
44934;BME280;30667;43.614;1.442;2023-05-06T05:46:49;99822.00;;;16.10;100.00
44934;BME280;30667;43.614;1.442;2023-05-06T05:49:15;99818.78;;;16.08;100.00
44934;BME280;30667;43.614;1.442;2023-05-06T05:51:40;99815.06;;;16.13;100.00
44934;BME280;30667;43.614;1.442;2023-05-06T05:54:05;99820.53;;;16.13;100.00
44934;BME280;30667;43.614;1.442;2023-05-06T05:56:31;99826.66;;;16.19;100.00
44934;BME280;30667;43.614;1.442;2023-05-06T05:58:56;99822.34;;;16.26;100.00
44934;BME280;30667;43.614;1.442;2023-05-06T06:01:21;99829.56;;;17.39;100.00
44934;BME280;30667;43.614;1.442;2023-05-06T06:03:47;99833.88;;;17.79;100.00
44934;BME280;30667;43.614;1.442;2023-05-06T06:06:12;99836.50;;;18.26;100.00
44934;BME280;30667;43.614;1.442;2023-05-06T06:08:37;99842.91;;;18.30;100.00
44934;BME280;30667;43.614;1.442;2023-05-06T06:11:03;99843.75;;;18.64;100.00
44934;BME280;30667;43.614;1.442;2023-05-06T06:13:30;99845.94;;;18.71;100.00
44934;BME280;30667;43.614;1.442;2023-05-06T06:15:55;99845.59;;;18.94;100.00
44934;BME280;30667;43.614;1.442;2023-05-06T06:18:21;99851.47;;;19.04;100.00
44934;BME280;30667;43.614;1.442;2023-05-06T06:20:46;99841.38;;;18.96;100.00
44934;BME280;30667;43.614;1.442;2023-05-06T06:23:12;99848.22;;;18.90;100.00
44934;BME280;30667;43.614;1.442;2023-05-06T06:25:37;99846.56;;;19.10;100.00
44934;BME280;30667;43.614;1.442;2023-05-06T06:28:03;99845.06;;;19.00;100.00
44934;BME280;30667;43.614;1.442;2023-05-06T06:30:28;99842.72;;;19.36;100.00
44934;BME280;30667;43.614;1.442;2023-05-06T06:32:54;99839.06;;;19.44;100.00
44934;BME280;30667;43.614;1.442;2023-05-06T06:35:20;99837.94;;;19.45;100.00
44934;BME280;30667;43.614;1.442;2023-05-06T06:37:46;99841.13;;;19.35;100.00
44934;BME280;30667;43.614;1.442;2023-05-06T06:40:12;99834.72;;;19.31;100.00
44934;BME280;30667;43.614;1.442;2023-05-06T06:42:37;99830.16;;;19.35;100.00
44934;BME280;30667;43.614;1.442;2023-05-06T06:45:03;99844.66;;;19.48;100.00
44934;BME280;30667;43.614;1.442;2023-05-06T06:47:29;99832.44;;;19.33;100.00
44934;BME280;30667;43.614;1.442;2023-05-06T06:49:54;99840.13;;;19.52;100.00
44934;BME280;30667;43.614;1.442;2023-05-06T06:52:20;99839.78;;;19.53;100.00
44934;BME280;30667;43.614;1.442;2023-05-06T06:54:45;99838.41;;;19.47;100.00
44934;BME280;30667;43.614;1.442;2023-05-06T06:57:11;99838.25;;;19.31;100.00
44934;BME280;30667;43.614;1.442;2023-05-06T06:59:36;99844.34;;;19.49;100.00
44934;BME280;30667;43.614;1.442;2023-05-06T07:02:02;99842.63;;;19.57;100.00
44934;BME280;30667;43.614;1.442;2023-05-06T07:04:27;99831.75;;;19.73;100.00
44934;BME280;30667;43.614;1.442;2023-05-06T07:06:53;99830.84;;;19.56;100.00
44934;BME280;30667;43.614;1.442;2023-05-06T07:09:18;99836.13;;;19.74;100.00
44934;BME280;30667;43.614;1.442;2023-05-06T07:11:43;99836.31;;;19.69;100.00
44934;BME280;30667;43.614;1.442;2023-05-06T07:14:10;99832.91;;;19.72;100.00
44934;BME280;30667;43.614;1.442;2023-05-06T07:16:35;99825.63;;;19.76;100.00
44934;BME280;30667;43.614;1.442;2023-05-06T07:19:01;99821.38;;;19.66;100.00
44934;BME280;30667;43.614;1.442;2023-05-06T07:21:26;99815.78;;;19.63;100.00
44934;BME280;30667;43.614;1.442;2023-05-06T07:23:52;99819.50;;;19.70;100.00
44934;BME280;30667;43.614;1.442;2023-05-06T07:26:18;99816.09;;;19.73;100.00
44934;BME280;30667;43.614;1.442;2023-05-06T07:28:43;99813.72;;;19.84;100.00
44934;BME280;30667;43.614;1.442;2023-05-06T07:31:08;99819.19;;;19.96;100.00
44934;BME280;30667;43.614;1.442;2023-05-06T07:33:34;99818.94;;;20.02;100.00
44934;BME280;30667;43.614;1.442;2023-05-06T07:36:00;99821.34;;;20.03;100.00
44934;BME280;30667;43.614;1.442;2023-05-06T07:38:25;99818.75;;;19.94;100.00
44934;BME280;30667;43.614;1.442;2023-05-06T07:40:51;99819.53;;;19.95;100.00
44934;BME280;30667;43.614;1.442;2023-05-06T07:43:17;99817.47;;;20.04;100.00
44934;BME280;30667;43.614;1.442;2023-05-06T07:45:42;99816.66;;;20.04;100.00
44934;BME280;30667;43.614;1.442;2023-05-06T07:48:07;99815.75;;;19.87;100.00
44934;BME280;30667;43.614;1.442;2023-05-06T07:50:33;99816.78;;;20.07;100.00
44934;BME280;30667;43.614;1.442;2023-05-06T07:52:58;99813.34;;;20.10;100.00
44934;BME280;30667;43.614;1.442;2023-05-06T07:55:24;99812.88;;;20.08;100.00
44934;BME280;30667;43.614;1.442;2023-05-06T07:57:50;99811.16;;;20.04;100.00
44934;BME280;30667;43.614;1.442;2023-05-06T08:00:16;99810.47;;;20.07;100.00
44934;BME280;30667;43.614;1.442;2023-05-06T08:02:42;99808.75;;;20.02;100.00
44934;BME280;30667;43.614;1.442;2023-05-06T08:05:11;99803.38;;;20.06;100.00
44934;BME280;30667;43.614;1.442;2023-05-06T08:07:40;99797.06;;;20.05;100.00
44934;BME280;30667;43.614;1.442;2023-05-06T08:10:07;99806.47;;;20.04;100.00
44934;BME280;30667;43.614;1.442;2023-05-06T08:12:34;99801.75;;;20.17;100.00
44934;BME280;30667;43.614;1.442;2023-05-06T08:15:00;99801.94;;;20.24;100.00
44934;BME280;30667;43.614;1.442;2023-05-06T08:17:26;99796.59;;;20.16;100.00
44934;BME280;30667;43.614;1.442;2023-05-06T08:19:51;99800.03;;;20.25;100.00
44934;BME280;30667;43.614;1.442;2023-05-06T08:22:17;99798.31;;;20.20;100.00
44934;BME280;30667;43.614;1.442;2023-05-06T08:24:42;99788.91;;;20.21;100.00
44934;BME280;30667;43.614;1.442;2023-05-06T08:27:08;99801.69;;;20.29;100.00
44934;BME280;30667;43.614;1.442;2023-05-06T08:29:33;99790.25;;;20.27;100.00
44934;BME280;30667;43.614;1.442;2023-05-06T08:31:59;99803.56;;;20.25;100.00
44934;BME280;30667;43.614;1.442;2023-05-06T08:34:25;99795.41;;;20.29;100.00
44934;BME280;30667;43.614;1.442;2023-05-06T08:36:50;99799.53;;;20.35;100.00
44934;BME280;30667;43.614;1.442;2023-05-06T08:39:16;99798.59;;;20.31;100.00
44934;BME280;30667;43.614;1.442;2023-05-06T08:41:46;99799.41;;;20.31;100.00
44934;BME280;30667;43.614;1.442;2023-05-06T08:44:14;99792.75;;;20.32;100.00
44934;BME280;30667;43.614;1.442;2023-05-06T08:46:41;99793.22;;;20.35;100.00
44934;BME280;30667;43.614;1.442;2023-05-06T08:49:07;99788.19;;;20.37;100.00
44934;BME280;30667;43.614;1.442;2023-05-06T08:51:34;99776.75;;;20.35;100.00
44934;BME280;30667;43.614;1.442;2023-05-06T08:54:00;99786.13;;;20.33;100.00
44934;BME280;30667;43.614;1.442;2023-05-06T08:56:29;99782.69;;;20.37;100.00
44934;BME280;30667;43.614;1.442;2023-05-06T08:58:56;99790.94;;;20.37;100.00
44934;BME280;30667;43.614;1.442;2023-05-06T09:01:24;99779.50;;;20.35;100.00
44934;BME280;30667;43.614;1.442;2023-05-06T09:03:51;99768.94;;;20.37;100.00
44934;BME280;30667;43.614;1.442;2023-05-06T09:06:17;99771.78;;;20.40;100.00
44934;BME280;30667;43.614;1.442;2023-05-06T09:08:42;99772.59;;;20.41;100.00
44934;BME280;30667;43.614;1.442;2023-05-06T09:11:28;99772.25;;;20.42;100.00
44934;BME280;30667;43.614;1.442;2023-05-06T09:16:33;99768.44;;;20.47;100.00
44934;BME280;30667;43.614;1.442;2023-05-06T09:18:58;99764.19;;;20.49;100.00
44934;BME280;30667;43.614;1.442;2023-05-06T09:21:38;99765.44;;;20.52;100.00
44934;BME280;30667;43.614;1.442;2023-05-06T09:24:05;99764.63;;;20.51;100.00
44934;BME280;30667;43.614;1.442;2023-05-06T09:26:32;99765.53;;;20.56;100.00
44934;BME280;30667;43.614;1.442;2023-05-06T09:28:58;99761.53;;;20.53;100.00
44934;BME280;30667;43.614;1.442;2023-05-06T09:31:25;99760.41;;;20.54;100.00
44934;BME280;30667;43.614;1.442;2023-05-06T09:33:51;99760.13;;;20.59;100.00
44934;BME280;30667;43.614;1.442;2023-05-06T09:36:17;99755.81;;;20.58;100.00
44934;BME280;30667;43.614;1.442;2023-05-06T09:38:43;99755.81;;;20.58;100.00
44934;BME280;30667;43.614;1.442;2023-05-06T09:41:08;99740.91;;;20.59;100.00
44934;BME280;30667;43.614;1.442;2023-05-06T09:43:35;99754.41;;;20.64;100.00
44934;BME280;30667;43.614;1.442;2023-05-06T09:46:02;99751.19;;;20.62;100.00
44934;BME280;30667;43.614;1.442;2023-05-06T09:48:30;99743.53;;;20.68;100.00
44934;BME280;30667;43.614;1.442;2023-05-06T09:50:56;99735.63;;;20.66;100.00
44934;BME280;30667;43.614;1.442;2023-05-06T09:53:23;99720.63;;;20.64;100.00
44934;BME280;30667;43.614;1.442;2023-05-06T09:55:49;99717.19;;;20.67;100.00
44934;BME280;30667;43.614;1.442;2023-05-06T09:58:16;99715.91;;;20.64;100.00
44934;BME280;30667;43.614;1.442;2023-05-06T10:00:42;99727.72;;;20.65;100.00
44934;BME280;30667;43.614;1.442;2023-05-06T10:03:09;99716.47;;;20.70;100.00
44934;BME280;30667;43.614;1.442;2023-05-06T10:05:36;99718.09;;;20.71;100.00
44934;BME280;30667;43.614;1.442;2023-05-06T10:08:02;99719.50;;;20.65;100.00
44934;BME280;30667;43.614;1.442;2023-05-06T10:10:33;99715.56;;;20.66;100.00
44934;BME280;30667;43.614;1.442;2023-05-06T10:13:01;99707.09;;;20.71;100.00
44934;BME280;30667;43.614;1.442;2023-05-06T10:15:27;99716.03;;;20.68;100.00
44934;BME280;30667;43.614;1.442;2023-05-06T10:17:53;99712.94;;;20.70;100.00
44934;BME280;30667;43.614;1.442;2023-05-06T10:20:20;99710.63;;;20.72;100.00
44934;BME280;30667;43.614;1.442;2023-05-06T10:23:12;99713.09;;;20.77;100.00
44934;BME280;30667;43.614;1.442;2023-05-06T10:25:41;99707.25;;;20.78;100.00
44934;BME280;30667;43.614;1.442;2023-05-06T10:28:09;99706.81;;;20.76;100.00
44934;BME280;30667;43.614;1.442;2023-05-06T10:30:36;99700.25;;;20.81;100.00
44934;BME280;30667;43.614;1.442;2023-05-06T10:33:07;99701.75;;;20.78;100.00
44934;BME280;30667;43.614;1.442;2023-05-06T10:38:11;99694.75;;;20.97;100.00
44934;BME280;30667;43.614;1.442;2023-05-06T10:40:38;99691.81;;;20.90;100.00
44934;BME280;30667;43.614;1.442;2023-05-06T10:48:29;99677.56;;;20.84;100.00
44934;BME280;30667;43.614;1.442;2023-05-06T10:56:19;99685.97;;;20.91;100.00
44934;BME280;30667;43.614;1.442;2023-05-06T10:58:46;99683.66;;;20.93;100.00
44934;BME280;30667;43.614;1.442;2023-05-06T11:01:13;99678.50;;;20.92;100.00
44934;BME280;30667;43.614;1.442;2023-05-06T11:03:42;99677.91;;;20.98;100.00
44934;BME280;30667;43.614;1.442;2023-05-06T11:06:08;99666.44;;;20.96;100.00
44934;BME280;30667;43.614;1.442;2023-05-06T11:08:33;99668.47;;;20.99;100.00
44934;BME280;30667;43.614;1.442;2023-05-06T11:10:59;99657.13;;;21.01;100.00
44934;BME280;30667;43.614;1.442;2023-05-06T11:13:29;99651.09;;;20.95;100.00
44934;BME280;30667;43.614;1.442;2023-05-06T11:15:58;99655.44;;;20.96;100.00
44934;BME280;30667;43.614;1.442;2023-05-06T11:26:11;99641.88;;;21.03;100.00
44934;BME280;30667;43.614;1.442;2023-05-06T11:28:38;99640.16;;;21.15;100.00
44934;BME280;30667;43.614;1.442;2023-05-06T11:31:03;99647.78;;;21.05;100.00
44934;BME280;30667;43.614;1.442;2023-05-06T11:33:33;99641.16;;;21.07;100.00
44934;BME280;30667;43.614;1.442;2023-05-06T11:36:00;99627.13;;;21.12;100.00
44934;BME280;30667;43.614;1.442;2023-05-06T11:38:26;99628.47;;;21.02;100.00
44934;BME280;30667;43.614;1.442;2023-05-06T11:40:51;99641.31;;;21.14;100.00
44934;BME280;30667;43.614;1.442;2023-05-06T11:43:17;99634.47;;;21.08;100.00
44934;BME280;30667;43.614;1.442;2023-05-06T11:45:47;99627.13;;;21.12;100.00
44934;BME280;30667;43.614;1.442;2023-05-06T11:48:14;99627.03;;;21.08;100.00
44934;BME280;30667;43.614;1.442;2023-05-06T11:50:44;99626.84;;;21.17;100.00
44934;BME280;30667;43.614;1.442;2023-05-06T11:53:21;99621.94;;;21.26;100.00
44934;BME280;30667;43.614;1.442;2023-05-06T11:55:48;99625.25;;;21.16;100.00
44934;BME280;30667;43.614;1.442;2023-05-06T11:58:19;99620.28;;;21.05;100.00
44934;BME280;30667;43.614;1.442;2023-05-06T12:00:52;99621.19;;;21.10;100.00
44934;BME280;30667;43.614;1.442;2023-05-06T12:03:19;99629.78;;;21.08;100.00
44934;BME280;30667;43.614;1.442;2023-05-06T12:05:45;99609.97;;;21.18;100.00
44934;BME280;30667;43.614;1.442;2023-05-06T12:08:24;99617.06;;;21.19;100.00
44934;BME280;30667;43.614;1.442;2023-05-06T12:10:51;99620.09;;;21.14;100.00
44934;BME280;30667;43.614;1.442;2023-05-06T12:13:18;99623.91;;;21.26;100.00
44934;BME280;30667;43.614;1.442;2023-05-06T12:15:45;99620.19;;;21.18;100.00
44934;BME280;30667;43.614;1.442;2023-05-06T12:18:12;99621.56;;;21.28;100.00
44934;BME280;30667;43.614;1.442;2023-05-06T12:20:38;99620.31;;;21.25;100.00
44934;BME280;30667;43.614;1.442;2023-05-06T12:23:10;99608.78;;;21.35;100.00
44934;BME280;30667;43.614;1.442;2023-05-06T12:25:37;99610.84;;;21.22;100.00
44934;BME280;30667;43.614;1.442;2023-05-06T12:28:16;99603.91;;;21.29;100.00
44934;BME280;30667;43.614;1.442;2023-05-06T12:30:42;99596.38;;;21.45;100.00
44934;BME280;30667;43.614;1.442;2023-05-06T12:33:08;99599.19;;;21.29;100.00
44934;BME280;30667;43.614;1.442;2023-05-06T12:35:34;99602.16;;;21.20;100.00
44934;BME280;30667;43.614;1.442;2023-05-06T12:38:07;99594.78;;;21.25;100.00
44934;BME280;30667;43.614;1.442;2023-05-06T12:40:33;99599.78;;;21.38;100.00
44934;BME280;30667;43.614;1.442;2023-05-06T12:42:59;99593.34;;;21.31;100.00
44934;BME280;30667;43.614;1.442;2023-05-06T12:45:24;99589.94;;;21.37;100.00
44934;BME280;30667;43.614;1.442;2023-05-06T12:47:53;99589.69;;;21.27;100.00
44934;BME280;30667;43.614;1.442;2023-05-06T12:50:38;99595.44;;;21.37;100.00
44934;BME280;30667;43.614;1.442;2023-05-06T12:53:05;99594.19;;;21.70;100.00
44934;BME280;30667;43.614;1.442;2023-05-06T12:55:35;99588.50;;;21.44;100.00
44934;BME280;30667;43.614;1.442;2023-05-06T12:58:01;99585.31;;;21.41;100.00
44934;BME280;30667;43.614;1.442;2023-05-06T13:00:27;99585.38;;;21.45;100.00
44934;BME280;30667;43.614;1.442;2023-05-06T13:02:53;99581.31;;;21.39;100.00
44934;BME280;30667;43.614;1.442;2023-05-06T13:05:18;99576.41;;;21.29;100.00
44934;BME280;30667;43.614;1.442;2023-05-06T13:07:44;99571.16;;;21.23;100.00
44934;BME280;30667;43.614;1.442;2023-05-06T13:10:09;99566.41;;;21.20;100.00
44934;BME280;30667;43.614;1.442;2023-05-06T13:12:35;99576.16;;;21.18;100.00